METAR Data
IDs: Format: Raw Decoded Include TAF

Data at: 0624 UTC 23 Feb 2019

PANC 230553Z 00000KT 10SM BKN220 M09/M13 A3036 RMK AO2 SLP283 4/020 T10891128 11033 21111 50007
PANC 230453Z 00000KT 10SM BKN220 M11/M13 A3036 RMK AO2 SLP285 T11061128
PANC 230353Z 00000KT 10SM SCT220 M08/M12 A3035 RMK AO2 SLP279 T10831122
PANC 230253Z 00000KT 10SM SCT200 M06/M12 A3034 RMK AO2 SLP276 T10611122 53007
PANC 230153Z 00000KT 10SM FEW220 M04/M13 A3033 RMK AO2 SLP273 T10391128
PANC 230053Z 00000KT 10SM FEW220 M04/M13 A3031 RMK AO2 SLP269 T10441133
PANC 222353Z 00000KT 10SM FEW220 M04/M13 A3032 RMK AO2 SLP269 4/020 T10441133 11044 21133 51014
PANC 222253Z 00000KT 10SM FEW220 M06/M13 A3031 RMK AO2 SLP267 T10561133
PANC 222153Z 10003KT 10SM FEW220 M07/M13 A3029 RMK AO2 SLP262 T10671128
PANC 222053Z 10003KT 10SM FEW220 M08/M13 A3027 RMK AO2 SLP255 T10831133 53013
PANC 221953Z 00000KT 10SM CLR M08/M16 A3025 RMK AO2 SLP248 T10831156
PANC 221853Z 00000KT 10SM CLR M08/M14 A3025 RMK AO2 SLP247 T10831144
PANC 221753Z 00000KT 10SM CLR M13/M16 A3024 RMK AO2 SLP242 4/020 I1000 I6000 T11281161 11039 21150 52022
PANC 221653Z 00000KT 10SM CLR M09/M14 A3021 RMK AO2 SLP235 T10891139
PANC 221553Z 34004KT 10SM CLR M09/M12 A3019 RMK AO2 SLP227 T10891122
PANC 221453Z 00000KT 10SM CLR M08/M13 A3017 RMK AO2 SLP220 T10831128 53014
PANC 221353Z 34011KT 10SM CLR M06/M12 A3014 RMK AO2 SLP211 T10561122
PANC 221253Z 02006KT 10SM CLR M06/M12 A3013 RMK AO2 SLP206 T10611122
PANC 221153Z 02007KT 10SM CLR M04/M12 A3013 RMK AO2 SLP206 4/020 I6000 T10441117 11028 21083 51021
PANC 221053Z 05007KT 10SM CLR M06/M11 A3011 RMK AO2 SLP200 T10561106
PANC 220953Z 03009KT 10SM CLR M04/M11 A3009 RMK AO2 SLP192 T10391106
PANC 220853Z 36005KT 10SM CLR M04/M12 A3007 RMK AO2 SLP185 I3000 T10391117 410171089 51023
PANC 220753Z 01005KT 10SM FEW040 M03/M11 A3005 RMK AO2 SLP180 T10281111
PANC 220653Z 10003KT 10SM CLR M04/M09 A3003 RMK AO2 SLP172 I1000 T10441094
PANC 220553Z 00000KT 10SM CLR M07/M09 A3000 RMK AO2 SLP162 4/020 I1000 I6000 T10671089 11017 21078 53020
PANC 220453Z 18005KT 10SM FEW050 FEW085 M07/M09 A2998 RMK AO2 SLP154 T10671089
PANC 220353Z 14003KT 10SM FEW050 SCT085 M07/M09 A2996 RMK AO2 SLP150 T10671094
PANC 220253Z 00000KT 10SM FEW050 SCT085 M03/M08 A2994 RMK AO2 SLP142 T10281078 53015
PANC 220153Z 00000KT 10SM FEW050 SCT085 M02/M08 A2992 RMK AO2 SLP135 T10221078
PANC 220053Z 17004KT 10SM FEW050 SCT085 M02/M08 A2991 RMK AO2 SLP131 T10171078
PANC 212353Z 22007KT 10SM FEW085 SCT200 M02/M09 A2990 RMK AO2 SLP127 4/021 T10221089 11022 21089 51009
PANC 212253Z 18007KT 10SM SCT110 BKN200 M03/M08 A2989 RMK AO2 SLP124 T10281083
PANC 212153Z 00000KT 10SM SCT110 BKN200 M02/M11 A2988 RMK AO2 SLP123 T10221106
PANC 212053Z 10004KT 10SM BKN110 BKN200 M06/M12 A2987 RMK AO2 SLP118 T10561117 53027
PANC 211953Z 29004KT 10SM FEW100 SCT180 M07/M13 A2984 RMK AO2 SLP108 T10721128
PANC 211853Z 23004KT 10SM FEW060 BKN180 M08/M13 A2981 RMK AO2 SLP098 T10831128